Archer, Iowa
Current Conditions -  °F | °C
As of 8:35 AM on Tuesday 21 Oct 2014 (Local Time) from KSHL Reporting Station
Clear Clear  
Wind Chill: 38°   Ceiling: Unl
Heat Index: 41°   Visibility: 9mi
Dew Point: 37°   Wind: 5mph
Humidity: 87%   Direction: 110°ESE
Pressure: 30.1"   Gusts: NA
Location:  43.12°N, 95.75°W
Report Text: KSHL 211335Z AUTO 11004KT 9SM CLR 05/03 A3010 RMK AO2
Loading
Personal Weather Stations






























Interactive Weather Map
Tropical Storm Tracking
New forecast layout! Learn more

10-Day Weather Forecast

Advertisements
Track Severe Weather on mobile